createdAt,value
2022-08-04T00:02:01.594Z,28.52
2022-08-04T00:07:13.992Z,28.45
2022-08-04T00:12:29.325Z,28.26
2022-08-04T00:17:38.328Z,28.18
2022-08-04T00:22:50.753Z,28.18
2022-08-04T00:28:03.040Z,28.17
2022-08-04T00:33:15.423Z,28.05
2022-08-04T00:38:27.749Z,27.95
2022-08-04T00:43:39.972Z,27.82
2022-08-04T00:48:52.158Z,27.76
2022-08-04T00:54:04.473Z,27.69
2022-08-04T00:59:16.739Z,27.73
2022-08-04T01:04:29.148Z,27.78
2022-08-04T01:14:53.808Z,27.72
2022-08-04T01:25:18.436Z,27.65
2022-08-04T01:30:33.315Z,27.6
2022-08-04T01:35:46.523Z,27.59
2022-08-04T01:41:00.864Z,27.53
2022-08-04T01:51:25.349Z,27.44
2022-08-04T01:56:37.711Z,27.36
2022-08-04T02:01:50.143Z,27.25
2022-08-04T02:07:02.276Z,27.11
2022-08-04T02:12:15.779Z,27.01
2022-08-04T02:17:26.623Z,26.96
2022-08-04T02:22:38.872Z,26.91
2022-08-04T02:27:59.572Z,26.93
2022-08-04T02:33:03.368Z,26.99
2022-08-04T02:38:15.894Z,27
2022-08-04T02:43:50.389Z,26.96
2022-08-04T02:48:40.844Z,26.9
2022-08-04T02:53:53.064Z,26.85
2022-08-04T02:59:08.365Z,26.75
2022-08-04T03:04:24.140Z,26.68
2022-08-04T03:09:35.170Z,26.6
2022-08-04T03:14:45.261Z,26.59
2022-08-04T03:19:57.538Z,26.56
2022-08-04T03:25:09.980Z,26.53
2022-08-04T03:30:22.315Z,26.5
2022-08-04T03:35:34.722Z,26.45
2022-08-04T03:40:47.131Z,26.44
2022-08-04T03:45:59.511Z,26.49
2022-08-04T03:51:11.644Z,26.52
2022-08-04T03:56:23.924Z,26.53
2022-08-04T04:02:00.994Z,26.4
2022-08-04T04:06:53.840Z,26.17
2022-08-04T04:12:01.169Z,25.98
2022-08-04T04:17:13.846Z,25.81
2022-08-04T04:22:26.260Z,25.68
2022-08-04T04:27:38.560Z,25.56
2022-08-04T04:32:50.865Z,25.55
2022-08-04T04:38:03.080Z,25.55
2022-08-04T04:43:15.261Z,25.55
2022-08-04T04:48:30.394Z,25.54
2022-08-04T04:53:42.773Z,25.65
2022-08-04T04:58:55.171Z,25.7
2022-08-04T05:04:07.497Z,25.83
2022-08-04T05:09:19.917Z,25.96
2022-08-04T05:14:40.901Z,26.06
2022-08-04T05:19:44.659Z,26.15
2022-08-04T05:24:57.023Z,26.23
2022-08-04T05:30:09.415Z,26.29
2022-08-04T05:35:37.560Z,26.38
2022-08-04T05:40:34.055Z,26.53
2022-08-04T05:45:46.506Z,26.65
2022-08-04T05:51:00.875Z,26.77
2022-08-04T05:56:11.241Z,26.96
2022-08-04T06:01:23.518Z,27.09
2022-08-04T06:06:35.883Z,27.25
2022-08-04T06:12:00.372Z,27.39
2022-08-04T06:17:00.762Z,27.46
2022-08-04T06:27:25.978Z,27.76
2022-08-04T06:32:41.768Z,27.89
2022-08-04T06:37:50.943Z,27.99
2022-08-04T06:43:03.369Z,28.05
2022-08-04T06:48:15.703Z,28.13
2022-08-04T06:53:28.053Z,28.26
2022-08-04T06:58:40.330Z,28.33
2022-08-04T07:03:52.755Z,28.34
2022-08-04T07:09:05.161Z,28.44
2022-08-04T07:14:17.514Z,28.53
2022-08-04T07:19:29.827Z,28.63
2022-08-04T07:24:42.043Z,28.73
2022-08-04T07:29:54.546Z,28.82
2022-08-04T07:35:07.217Z,28.9
2022-08-04T07:40:19.606Z,29.01
2022-08-04T07:45:31.956Z,29.18
2022-08-04T07:50:44.487Z,29.31
2022-08-04T07:55:56.915Z,29.44
2022-08-04T08:06:31.824Z,29.68
2022-08-04T08:12:34.956Z,29.82
2022-08-04T08:16:46.139Z,29.96
2022-08-04T08:22:00.475Z,30.09
2022-08-04T08:27:10.758Z,30.19
2022-08-04T08:32:23.160Z,30.33
2022-08-04T08:37:35.397Z,30.46
2022-08-04T08:42:47.743Z,30.57
2022-08-04T08:48:05.651Z,30.68
2022-08-04T08:53:12.262Z,30.76
2022-08-04T08:58:24.700Z,30.88
2022-08-04T09:03:36.934Z,30.96
2022-08-04T09:08:51.938Z,31.05
2022-08-04T09:14:04.473Z,31.18
2022-08-04T09:19:17.622Z,31.3
2022-08-04T09:24:34.979Z,31.51
2022-08-04T09:29:41.732Z,31.63
2022-08-04T09:35:03.326Z,31.8
2022-08-04T09:45:22.493Z,32.21
2022-08-04T09:50:31.110Z,32.39
2022-08-04T09:55:52.990Z,32.6
2022-08-04T10:00:56.223Z,32.85
2022-08-04T10:06:08.490Z,32.88
2022-08-04T10:11:20.715Z,32.96
2022-08-04T10:16:32.919Z,33.07
2022-08-04T10:21:50.891Z,33.21
2022-08-04T10:26:58.327Z,33.39
2022-08-04T10:32:10.262Z,33.65
2022-08-04T10:37:22.971Z,33.95
2022-08-04T10:42:35.057Z,34.1
2022-08-04T10:47:53.250Z,34.19
2022-08-04T10:53:02.343Z,34.4
2022-08-04T10:58:14.756Z,34.66
2022-08-04T11:03:27.172Z,34.88
2022-08-04T11:08:39.436Z,35.06
2022-08-04T11:13:51.775Z,35.22
2022-08-04T11:19:03.960Z,35.38
2022-08-04T11:24:16.631Z,35.68
2022-08-04T11:29:29.070Z,35.96
2022-08-04T11:34:41.361Z,36.18
2022-08-04T11:39:53.801Z,36.47
2022-08-04T11:45:06.944Z,36.65
2022-08-04T11:50:19.469Z,36.71
2022-08-04T11:55:31.647Z,36.73
2022-08-04T12:00:43.938Z,36.83
2022-08-04T12:05:56.239Z,36.96
2022-08-04T12:11:08.757Z,37.24
2022-08-04T12:16:21.008Z,37.59
2022-08-04T12:21:36.058Z,37.77
2022-08-04T12:26:48.407Z,37.96
2022-08-04T12:32:00.735Z,38.19
2022-08-04T12:37:12.934Z,38.36
2022-08-04T12:42:25.477Z,38.5
2022-08-04T12:47:38.339Z,38.59
2022-08-04T12:53:05.622Z,38.71
2022-08-04T12:58:02.268Z,38.7
2022-08-04T13:03:14.542Z,38.63
2022-08-04T13:08:26.894Z,38.75
2022-08-04T13:13:39.569Z,38.5
2022-08-04T13:18:52.029Z,38.49
2022-08-04T13:24:09.713Z,38.59
2022-08-04T13:29:17.273Z,38.41
2022-08-04T13:34:29.355Z,38.11
2022-08-04T13:39:41.575Z,38.36
2022-08-04T13:44:53.871Z,38.79
2022-08-04T13:50:10.987Z,39.09
2022-08-04T13:55:19.088Z,39.42
2022-08-04T14:00:31.466Z,39.51
2022-08-04T14:05:59.039Z,39.89
2022-08-04T14:10:55.870Z,40.12
2022-08-04T14:16:08.292Z,40.52
2022-08-04T14:21:20.619Z,40.66
2022-08-04T14:26:33.729Z,40.67
2022-08-04T14:31:54.434Z,40.78
2022-08-04T14:37:13.089Z,40.89
2022-08-04T14:42:09.813Z,41.34
2022-08-04T14:47:22.158Z,41.53
2022-08-04T14:52:34.250Z,41.68
2022-08-04T14:58:33.297Z,41.79
2022-08-04T15:02:58.900Z,41.8
2022-08-04T15:13:23.357Z,41.66
2022-08-04T15:18:35.666Z,41.77
2022-08-04T15:23:48.004Z,41.75
2022-08-04T15:29:03.195Z,41.86
2022-08-04T15:34:15.513Z,42.09
2022-08-04T15:39:28.049Z,42.22
2022-08-04T15:44:40.259Z,42
2022-08-04T15:49:52.374Z,41.89
2022-08-04T15:55:04.631Z,42.02
2022-08-04T16:00:16.841Z,42.3
2022-08-04T16:05:29.260Z,42.75
2022-08-04T16:10:44.397Z,42.87
2022-08-04T16:15:56.628Z,42.46
2022-08-04T16:21:08.881Z,42.46
2022-08-04T16:26:21.929Z,42.41
2022-08-04T16:31:33.530Z,42.42
2022-08-04T16:36:45.881Z,42.6
2022-08-04T16:41:58.117Z,42.67
2022-08-04T16:47:22.298Z,42.84
2022-08-04T16:57:38.424Z,42.58
2022-08-04T17:02:46.186Z,42.11
2022-08-04T17:08:27.167Z,41.98
2022-08-04T17:13:29.195Z,41.89
2022-08-04T17:18:24.528Z,41.52
2022-08-04T17:24:13.914Z,40.95
2022-08-04T17:28:48.754Z,40.87
2022-08-04T17:34:01.211Z,40.98
2022-08-04T17:39:16.904Z,40.85
2022-08-04T17:44:25.955Z,40.88
2022-08-04T17:49:44.618Z,40.89
2022-08-04T17:54:50.501Z,40.82
2022-08-04T18:00:02.583Z,40.78
2022-08-04T18:05:14.840Z,40.44
2022-08-04T18:10:30.381Z,40.08
2022-08-04T18:15:40.655Z,39.72
2022-08-04T18:20:51.644Z,39.35
2022-08-04T18:26:04.109Z,38.9
2022-08-04T18:31:16.550Z,38.49
2022-08-04T18:36:32.343Z,38.13
2022-08-04T18:41:51.709Z,37.86
2022-08-04T18:46:55.722Z,37.6
2022-08-04T18:52:05.204Z,37.33
2022-08-04T18:57:25.253Z,37.14
2022-08-04T19:02:29.675Z,36.88
2022-08-04T19:08:01.603Z,36.68
2022-08-04T19:12:54.209Z,36.51
2022-08-04T19:18:07.046Z,36.35
2022-08-04T19:24:11.880Z,36.28
2022-08-04T19:28:31.741Z,36.19
2022-08-04T19:33:55.738Z,36.11
2022-08-04T19:38:54.994Z,36.01
2022-08-04T19:44:07.130Z,35.9
2022-08-04T19:50:02.696Z,35.76
2022-08-04T19:54:31.773Z,35.61
2022-08-04T19:59:48.124Z,35.43
2022-08-04T20:04:56.753Z,35.19
2022-08-04T20:10:08.956Z,34.94
2022-08-04T20:15:21.278Z,34.8
2022-08-04T20:25:47.307Z,34.42
2022-08-04T20:30:58.152Z,34.34
2022-08-04T20:36:10.456Z,34.27
2022-08-04T20:41:22.785Z,34.17
2022-08-04T20:46:35.036Z,34.04
2022-08-04T20:51:47.208Z,34.01
2022-08-04T20:56:59.554Z,33.02
2022-08-04T21:02:13.351Z,32.28
2022-08-04T21:07:24.305Z,32.44
2022-08-04T21:12:36.315Z,32.52
2022-08-04T21:23:01.820Z,33.01
2022-08-04T21:28:19.279Z,33.22
2022-08-04T21:33:28.111Z,33.07
2022-08-04T21:38:38.143Z,33.09
2022-08-04T21:43:50.475Z,33.16
2022-08-04T21:49:12.107Z,33.12
2022-08-04T21:54:24.647Z,33.16
2022-08-04T21:59:45.025Z,33.11
2022-08-04T22:04:49.317Z,33.03
2022-08-04T22:10:02.898Z,33.03
2022-08-04T22:15:22.612Z,33.05
2022-08-04T22:20:27.563Z,32.99
2022-08-04T22:25:38.453Z,32.75
2022-08-04T22:36:03.029Z,32.32
2022-08-04T22:41:15.348Z,32.18
2022-08-04T22:46:27.646Z,32.01
2022-08-04T22:51:39.774Z,32.01
2022-08-04T22:56:52.180Z,31.99
2022-08-04T23:02:04.528Z,32.05
2022-08-04T23:07:17.179Z,32.06
2022-08-04T23:12:32.295Z,31.9
2022-08-04T23:17:47.852Z,31.84
2022-08-04T23:22:56.904Z,31.45
2022-08-04T23:28:08.818Z,30.45
2022-08-04T23:33:20.982Z,30.31
2022-08-04T23:38:33.574Z,30.16
2022-08-04T23:43:49.513Z,30.21
2022-08-04T23:48:58.600Z,30.35
2022-08-04T23:54:10.913Z,30.42
2022-08-04T23:59:49.190Z,30.45
